Antigo, Wisconsin
Current Conditions -  °F | °C
As of 9:55 PM on Sunday 23 Nov 2014 (Local Time) from KAIG Reporting Station
Drizzle Drizzle  
Wind Chill: 35°   Ceiling: 300
Heat Index: 38°   Visibility: 0.5mi
Dew Point: 38°   Wind: 5mph
Humidity: 100%   Direction: 100°E
Pressure: 29.23"   Gusts: NA
Location:  45.14°N, 89.15°W
Report Text: KAIG 240355Z AUTO 10004KT 1/2SM -DZ OVC003 04/04 A2923 RMK AO2 T00350035 400570006
Loading
Personal Weather Stations






























Interactive Weather Map New forecast layout! Learn more

10-Day Weather Forecast

Advertisements
Track Severe Weather on mobile